Time;durP1;ratioP1;P1;durP2;ratioP2;P2;SDS_P1;SDS_P2;PMS_P1;PMS_P2;Temp;Humidity;BMP_temperature;BMP_pressure;BME280_temperature;BME280_humidity;BME280_pressure;Samples;Min_cycle;Max_cycle;Signal;HPM_P1;HPM_P2
2021/11/25 00:00:52;;;;;;;34.10;16.13;;;0.80;99.60;;;;;;5035229;28;20041;-68
2021/11/25 00:03:17;;;;;;;35.40;17.30;;;0.80;99.60;;;;;;5028613;28;20030;-67
2021/11/25 00:05:43;;;;;;;37.50;18.00;;;0.90;99.80;;;;;;5031998;28;20029;-68
2021/11/25 00:08:09;;;;;;;33.80;17.02;;;0.90;99.70;;;;;;5034704;28;20029;-68
2021/11/25 00:10:36;;;;;;;39.38;17.90;;;0.90;99.80;;;;;;5035854;28;20040;-68
2021/11/25 00:13:03;;;;;;;35.95;17.83;;;0.90;99.70;;;;;;5035267;28;20018;-68
2021/11/25 00:15:28;;;;;;;34.97;17.48;;;0.90;99.80;;;;;;5035484;28;20389;-68
2021/11/25 00:17:54;;;;;;;35.03;17.23;;;0.90;99.80;;;;;;5033713;28;20025;-68
2021/11/25 00:20:20;;;;;;;38.33;17.27;;;0.90;99.70;;;;;;5035298;28;20025;-69
2021/11/25 00:22:46;;;;;;;33.50;16.55;;;0.90;99.80;;;;;;5033447;28;20075;-68
2021/11/25 00:25:12;;;;;;;33.88;16.17;;;0.90;99.80;;;;;;5032541;28;20041;-66
2021/11/25 00:27:40;;;;;;;27.77;14.57;;;0.90;99.80;;;;;;5031414;28;20029;-66
2021/11/25 00:30:07;;;;;;;29.52;15.50;;;1.00;99.90;;;;;;5020438;28;20489;-67
2021/11/25 00:32:33;;;;;;;31.23;15.82;;;1.00;99.90;;;;;;5031443;28;20076;-67
2021/11/25 00:34:59;;;;;;;33.78;15.93;;;1.10;99.90;;;;;;5028674;28;20029;-68
2021/11/25 00:37:25;;;;;;;35.38;15.52;;;1.10;99.90;;;;;;5014565;28;20502;-68
2021/11/25 00:39:50;;;;;;;31.00;15.45;;;1.10;99.80;;;;;;5029118;28;20056;-68
2021/11/25 00:42:16;;;;;;;36.03;15.45;;;1.10;99.90;;;;;;5032338;28;20034;-69
2021/11/25 00:44:42;;;;;;;29.05;14.88;;;1.10;99.80;;;;;;5032480;28;20037;-68
2021/11/25 00:47:07;;;;;;;29.17;14.65;;;1.10;99.80;;;;;;5030031;28;20062;-67
2021/11/25 00:49:33;;;;;;;31.63;15.23;;;1.10;99.70;;;;;;5030122;28;20044;-67
2021/11/25 00:51:58;;;;;;;33.28;15.95;;;1.00;99.70;;;;;;5032207;28;20140;-68
2021/11/25 00:54:24;;;;;;;30.85;15.55;;;1.00;99.70;;;;;;5032404;28;20031;-69
2021/11/25 00:56:50;;;;;;;27.35;13.95;;;1.00;99.80;;;;;;5027134;28;20033;-68
2021/11/25 00:59:15;;;;;;;33.90;15.13;;;1.00;99.80;;;;;;5013205;28;20446;-69
2021/11/25 01:01:41;;;;;;;29.65;14.75;;;1.00;99.80;;;;;;5030908;28;20030;-68
2021/11/25 01:04:07;;;;;;;32.13;15.32;;;1.00;99.80;;;;;;5032144;28;20025;-67
2021/11/25 01:06:32;;;;;;;31.10;14.75;;;1.00;99.80;;;;;;5029172;28;20116;-67
2021/11/25 01:08:58;;;;;;;30.42;15.40;;;0.90;99.70;;;;;;5004981;28;20037;-67
2021/11/25 01:11:25;;;;;;;27.75;14.70;;;0.90;99.70;;;;;;5013964;28;20083;-68
2021/11/25 01:13:52;;;;;;;28.20;14.50;;;0.90;99.90;;;;;;5013478;28;20670;-68
2021/11/25 01:16:18;;;;;;;31.20;15.23;;;0.80;99.80;;;;;;5031369;28;20105;-67
2021/11/25 01:18:44;;;;;;;32.90;16.13;;;0.80;99.80;;;;;;5030275;28;20047;-68
2021/11/25 01:21:09;;;;;;;35.85;15.75;;;0.80;99.80;;;;;;5031170;28;20021;-67
2021/11/25 01:23:35;;;;;;;31.83;15.77;;;0.80;99.80;;;;;;5031902;28;20473;-68
2021/11/25 01:26:01;;;;;;;31.45;15.88;;;0.80;99.90;;;;;;5031087;28;20025;-68
2021/11/25 01:28:28;;;;;;;32.35;15.18;;;0.80;99.90;;;;;;5030072;28;20088;-67
2021/11/25 01:30:56;;;;;;;31.88;15.27;;;0.70;99.90;;;;;;5012929;28;20032;-68
2021/11/25 01:33:23;;;;;;;29.85;15.13;;;0.70;99.90;;;;;;5027052;28;20029;-67
2021/11/25 01:35:51;;;;;;;30.67;15.13;;;0.80;99.90;;;;;;5030743;28;20022;-68
2021/11/25 01:38:17;;;;;;;24.90;13.65;;;0.80;99.90;;;;;;5016291;28;20029;-68
2021/11/25 01:40:47;;;;;;;28.77;14.93;;;0.80;99.90;;;;;;5021679;28;20076;-68
2021/11/25 01:43:13;;;;;;;28.60;14.85;;;0.80;99.90;;;;;;5030887;28;20037;-68
2021/11/25 01:45:39;;;;;;;27.88;13.70;;;0.80;99.90;;;;;;5030195;28;20040;-68
2021/11/25 01:48:05;;;;;;;23.67;13.23;;;0.80;99.90;;;;;;5022688;28;20389;-68
2021/11/25 01:50:33;;;;;;;29.33;14.30;;;0.80;99.90;;;;;;5026784;28;20430;-68
2021/11/25 01:52:58;;;;;;;25.95;13.63;;;0.80;99.90;;;;;;5031309;28;20050;-68
2021/11/25 01:55:25;;;;;;;26.98;14.00;;;0.80;99.90;;;;;;5030926;28;20470;-68
2021/11/25 01:57:52;;;;;;;26.52;13.80;;;0.80;99.90;;;;;;5022421;28;20100;-68
2021/11/25 02:00:30;;;;;;;29.55;14.30;;;0.80;99.90;;;;;;5025882;28;20338;-68
2021/11/25 02:02:57;;;;;;;25.60;13.00;;;0.80;99.90;;;;;;5030006;28;20038;-68
2021/11/25 02:05:23;;;;;;;25.25;13.68;;;0.90;99.90;;;;;;5029538;28;20040;-68
2021/11/25 02:07:49;;;;;;;24.70;13.48;;;0.90;99.90;;;;;;5028929;28;20033;-67
2021/11/25 02:10:15;;;;;;;26.75;13.98;;;0.90;99.90;;;;;;5030474;28;20029;-68
2021/11/25 02:12:41;;;;;;;28.60;13.93;;;0.90;99.90;;;;;;5030118;28;20025;-67
2021/11/25 02:15:08;;;;;;;25.70;13.98;;;0.80;99.90;;;;;;5030485;28;20036;-66
2021/11/25 02:17:35;;;;;;;27.95;14.20;;;0.90;99.90;;;;;;5026421;28;20457;-68
2021/11/25 02:20:03;;;;;;;27.05;13.35;;;0.80;99.90;;;;;;5030198;28;20052;-69
2021/11/25 02:22:29;;;;;;;26.92;13.57;;;0.80;99.90;;;;;;5030641;28;20052;-68
2021/11/25 02:24:54;;;;;;;26.23;13.77;;;0.90;99.90;;;;;;5030380;28;20025;-68
2021/11/25 02:27:21;;;;;;;26.73;13.00;;;0.80;99.90;;;;;;5025946;28;20033;-68
2021/11/25 02:29:47;;;;;;;24.70;13.10;;;0.90;99.90;;;;;;5026308;28;20014;-68
2021/11/25 02:32:12;;;;;;;26.33;13.85;;;0.90;99.90;;;;;;5028865;28;20025;-68
2021/11/25 02:34:38;;;;;;;27.45;13.70;;;0.90;99.90;;;;;;5016688;28;20428;-68
2021/11/25 02:37:03;;;;;;;29.15;13.68;;;0.80;99.90;;;;;;4994663;28;20029;-68
2021/11/25 02:39:29;;;;;;;25.02;12.93;;;0.80;99.90;;;;;;5021128;28;20037;-69
2021/11/25 02:41:55;;;;;;;27.38;14.20;;;0.90;99.90;;;;;;5029371;28;20022;-68
2021/11/25 02:44:21;;;;;;;29.58;14.40;;;0.90;99.90;;;;;;5029816;28;20423;-68
2021/11/25 02:46:52;;;;;;;27.48;14.88;;;0.90;99.90;;;;;;5028637;28;20378;-68
2021/11/25 02:49:18;;;;;;;27.98;14.50;;;0.90;99.90;;;;;;5028921;28;20017;-67
2021/11/25 02:51:43;;;;;;;29.48;14.95;;;0.90;99.90;;;;;;5030018;28;20500;-68
2021/11/25 02:54:09;;;;;;;26.55;13.95;;;0.90;99.90;;;;;;5030224;28;20021;-68
2021/11/25 02:56:35;;;;;;;25.55;13.77;;;0.90;99.90;;;;;;5025075;28;20033;-67
2021/11/25 02:59:00;;;;;;;27.75;13.70;;;0.90;99.90;;;;;;5028615;28;20029;-67
2021/11/25 03:01:29;;;;;;;28.75;14.27;;;0.90;99.90;;;;;;5028129;28;20034;-66
2021/11/25 03:03:55;;;;;;;27.70;14.40;;;0.80;99.90;;;;;;5028250;28;20107;-67
2021/11/25 03:06:21;;;;;;;31.08;15.48;;;0.80;99.90;;;;;;5018741;28;20402;-69
2021/11/25 03:08:48;;;;;;;32.03;15.63;;;0.90;99.90;;;;;;5027769;28;20044;-67
2021/11/25 03:11:16;;;;;;;25.73;13.80;;;0.80;99.90;;;;;;5029915;28;20104;-68
2021/11/25 03:13:44;;;;;;;28.25;14.43;;;0.80;99.90;;;;;;5029660;28;20489;-68
2021/11/25 03:16:11;;;;;;;26.00;13.63;;;0.90;99.90;;;;;;5029061;28;20085;-68
2021/11/25 03:18:40;;;;;;;24.60;13.50;;;0.90;99.90;;;;;;5026561;28;20129;-67
2021/11/25 03:21:06;;;;;;;25.95;13.55;;;0.90;99.90;;;;;;5005295;28;20030;-68
2021/11/25 03:23:34;;;;;;;22.25;12.40;;;0.90;99.90;;;;;;5025520;28;20030;-68
2021/11/25 03:26:03;;;;;;;24.45;13.02;;;0.90;99.90;;;;;;5022172;28;20026;-68
2021/11/25 03:28:29;;;;;;;24.98;12.13;;;0.90;99.90;;;;;;5025877;28;20489;-66
2021/11/25 03:30:55;;;;;;;25.88;13.25;;;0.90;99.90;;;;;;5019862;28;20029;-69
2021/11/25 03:33:31;;;;;;;24.83;13.23;;;0.90;99.90;;;;;;5014689;28;20653;-68
2021/11/25 03:35:58;;;;;;;24.15;12.50;;;0.90;99.90;;;;;;5020782;28;20030;-66
2021/11/25 03:38:25;;;;;;;23.83;11.95;;;0.90;99.90;;;;;;5010063;28;20103;-68
2021/11/25 03:40:51;;;;;;;23.98;12.60;;;0.90;99.90;;;;;;5014373;28;20030;-68
2021/11/25 03:43:17;;;;;;;23.00;12.93;;;0.90;99.90;;;;;;5026413;28;20041;-69
2021/11/25 03:45:43;;;;;;;26.35;13.07;;;0.90;99.90;;;;;;5028551;28;20033;-68
2021/11/25 03:48:09;;;;;;;24.25;12.63;;;0.80;99.90;;;;;;5028456;28;20389;-68
2021/11/25 03:50:35;;;;;;;21.70;12.43;;;0.80;99.90;;;;;;5028190;28;20040;-67
2021/11/25 03:53:01;;;;;;;28.10;12.70;;;0.80;99.90;;;;;;5029716;28;20021;-68
2021/11/25 03:55:27;;;;;;;25.92;13.73;;;0.80;99.90;;;;;;5023249;28;20116;-68
2021/11/25 03:57:53;;;;;;;26.40;12.65;;;0.90;99.90;;;;;;5028742;28;20029;-68
2021/11/25 04:00:21;;;;;;;24.98;13.65;;;0.90;99.90;;;;;;5026781;28;20470;-69
2021/11/25 04:02:48;;;;;;;24.27;12.52;;;0.90;99.90;;;;;;5033049;28;20039;-68
2021/11/25 04:05:14;;;;;;;25.08;12.65;;;1.00;99.90;;;;;;5025295;28;20029;-68
2021/11/25 04:12:43;;;;;;;24.65;12.32;;;1.00;99.90;;;;;;5049988;28;20049;-67
2021/11/25 04:15:11;;;;;;;22.92;12.55;;;1.00;99.90;;;;;;5048682;28;20337;-67
2021/11/25 04:17:37;;;;;;;22.25;11.73;;;0.90;99.90;;;;;;5051239;28;20033;-67
2021/11/25 04:20:05;;;;;;;26.90;13.65;;;0.90;99.90;;;;;;5047991;28;20110;-67
2021/11/25 04:22:31;;;;;;;29.60;14.02;;;0.90;99.90;;;;;;5052021;28;20033;-67
2021/11/25 04:24:57;;;;;;;24.02;12.95;;;0.90;99.90;;;;;;5050927;28;20025;-67
2021/11/25 04:27:23;;;;;;;26.25;13.15;;;0.90;99.90;;;;;;5050702;28;20029;-67
2021/11/25 04:30:03;;;;;;;27.15;13.60;;;1.00;99.90;;;;;;5050512;28;20365;-67
2021/11/25 04:38:17;;;;;;;26.25;12.57;;;1.00;99.90;;;;;;4985324;28;20034;-68
2021/11/25 04:40:50;;;;;;;26.52;13.45;;;1.00;99.90;;;;;;5034769;28;20528;-68
2021/11/25 04:43:18;;;;;;;24.55;12.88;;;1.10;99.90;;;;;;5052553;28;20035;-67
2021/11/25 04:45:45;;;;;;;26.67;12.95;;;1.10;99.90;;;;;;5047160;28;20033;-67
2021/11/25 04:48:11;;;;;;;27.27;13.90;;;1.10;99.90;;;;;;5048417;28;20413;-67
2021/11/25 04:50:38;;;;;;;29.95;13.77;;;1.20;99.90;;;;;;5050664;28;20335;-67
2021/11/25 04:53:04;;;;;;;28.13;13.90;;;1.20;99.90;;;;;;5050788;28;20021;-67
2021/11/25 04:55:30;;;;;;;30.20;13.55;;;1.20;99.90;;;;;;5034794;28;20462;-68
2021/11/25 04:57:56;;;;;;;25.48;12.75;;;1.20;99.90;;;;;;5049702;28;20078;-68
2021/11/25 05:00:22;;;;;;;29.38;12.95;;;1.20;99.90;;;;;;5033638;28;20553;-67
2021/11/25 05:02:48;;;;;;;31.98;14.40;;;1.20;99.90;;;;;;5044191;28;20032;-67
2021/11/25 05:05:14;;;;;;;30.25;14.88;;;1.20;99.90;;;;;;5043488;28;20388;-68
2021/11/25 05:07:40;;;;;;;32.20;13.30;;;1.20;99.90;;;;;;5044505;28;20030;-67
2021/11/25 05:10:07;;;;;;;29.15;13.45;;;1.20;99.90;;;;;;5039580;28;20021;-67
2021/11/25 05:12:33;;;;;;;31.02;13.98;;;1.10;99.90;;;;;;5046873;28;20033;-67
2021/11/25 05:14:59;;;;;;;32.95;14.57;;;1.10;99.90;;;;;;5051304;28;20024;-67
2021/11/25 05:17:25;;;;;;;31.27;13.73;;;1.10;99.90;;;;;;5047342;28;20896;-67
2021/11/25 05:19:50;;;;;;;29.02;13.90;;;1.10;99.90;;;;;;5040826;28;20032;-67
2021/11/25 05:22:16;;;;;;;30.02;14.40;;;1.10;99.90;;;;;;5041172;28;20426;-68
2021/11/25 05:24:42;;;;;;;28.83;14.00;;;1.10;99.90;;;;;;5036853;28;20039;-67
2021/11/25 05:27:08;;;;;;;27.98;13.82;;;1.10;99.90;;;;;;5031132;28;20033;-67
2021/11/25 05:29:34;;;;;;;27.85;13.15;;;1.10;99.90;;;;;;5041549;28;20028;-67
2021/11/25 05:32:00;;;;;;;31.33;14.90;;;1.10;99.90;;;;;;5050661;28;20029;-67
2021/11/25 05:34:25;;;;;;;29.55;13.75;;;1.10;99.90;;;;;;5040229;28;20031;-67
2021/11/25 05:36:51;;;;;;;29.88;13.68;;;1.20;99.90;;;;;;5047083;28;20481;-67
2021/11/25 05:39:16;;;;;;;25.63;12.77;;;1.20;99.90;;;;;;5045947;28;20047;-68
2021/11/25 05:41:43;;;;;;;30.60;13.90;;;1.20;99.90;;;;;;5051242;28;20079;-67
2021/11/25 05:44:09;;;;;;;26.85;13.07;;;1.20;99.90;;;;;;5034494;28;20025;-67
2021/11/25 05:46:35;;;;;;;28.50;12.80;;;1.30;99.90;;;;;;5031521;28;20040;-67
2021/11/25 05:49:01;;;;;;;29.05;13.55;;;1.30;99.90;;;;;;5041376;28;20213;-67
2021/11/25 05:51:26;;;;;;;29.58;14.25;;;1.30;99.90;;;;;;5049821;28;20641;-67
2021/11/25 05:53:52;;;;;;;32.17;13.77;;;1.20;99.90;;;;;;5043120;28;20111;-68
2021/11/25 05:56:18;;;;;;;33.55;14.02;;;1.20;99.90;;;;;;5031741;28;20100;-68
2021/11/25 05:58:43;;;;;;;30.33;12.95;;;1.20;99.90;;;;;;5038567;28;20096;-67
2021/11/25 06:01:09;;;;;;;29.17;13.52;;;1.20;99.90;;;;;;5038860;28;20120;-67
2021/11/25 06:03:35;;;;;;;32.10;14.25;;;1.10;99.90;;;;;;5047060;28;20025;-67
2021/11/25 06:06:00;;;;;;;31.15;14.40;;;1.20;99.90;;;;;;5047787;28;20385;-68
2021/11/25 06:08:26;;;;;;;29.83;13.73;;;1.20;99.90;;;;;;5034958;28;20370;-67
2021/11/25 06:10:52;;;;;;;25.35;12.23;;;1.20;99.90;;;;;;5049324;28;20025;-67
2021/11/25 06:13:18;;;;;;;33.25;14.38;;;1.20;99.90;;;;;;5047602;28;20495;-68
2021/11/25 06:15:46;;;;;;;28.33;13.70;;;1.30;99.90;;;;;;5051658;28;20021;-67
2021/11/25 06:18:12;;;;;;;91.47;41.45;;;1.30;99.90;;;;;;5051526;28;20032;-67
2021/11/25 06:20:39;;;;;;;33.00;15.90;;;1.30;99.90;;;;;;5048209;28;20080;-67
2021/11/25 06:23:05;;;;;;;29.65;13.57;;;1.40;99.90;;;;;;5051666;28;20064;-68
2021/11/25 06:25:31;;;;;;;29.60;13.80;;;1.40;99.90;;;;;;5044736;28;20025;-68
2021/11/25 06:27:57;;;;;;;24.95;12.18;;;1.40;99.90;;;;;;5048733;28;20431;-68
2021/11/25 06:30:23;;;;;;;26.27;12.65;;;1.40;99.90;;;;;;5050462;28;20025;-67
2021/11/25 06:32:49;;;;;;;26.63;12.73;;;1.40;99.90;;;;;;5047627;28;20029;-67
2021/11/25 06:35:17;;;;;;;26.42;12.32;;;1.40;99.90;;;;;;5050865;28;20035;-67
2021/11/25 06:37:45;;;;;;;22.90;11.63;;;1.40;99.90;;;;;;5036093;28;20469;-67
2021/11/25 06:40:13;;;;;;;34.28;13.57;;;1.40;99.90;;;;;;5049613;28;20016;-68
2021/11/25 06:42:39;;;;;;;49.85;22.90;;;1.40;99.90;;;;;;5049909;28;20040;-67
2021/11/25 06:45:06;;;;;;;35.92;17.15;;;1.40;99.90;;;;;;5045203;28;20025;-64
2021/11/25 06:47:31;;;;;;;27.33;12.60;;;1.40;99.90;;;;;;5042654;28;20029;-65
2021/11/25 06:49:57;;;;;;;29.45;13.05;;;1.30;99.90;;;;;;5039718;28;20075;-66
2021/11/25 06:52:23;;;;;;;28.90;12.25;;;1.30;99.90;;;;;;5051991;28;20017;-66
2021/11/25 06:54:48;;;;;;;26.85;12.40;;;1.20;99.90;;;;;;5045348;28;20044;-65
2021/11/25 06:57:14;;;;;;;27.02;12.63;;;1.20;99.90;;;;;;5031293;28;20397;-66
2021/11/25 06:59:40;;;;;;;31.50;15.73;;;1.10;99.90;;;;;;5034518;28;20094;-66
2021/11/25 07:02:07;;;;;;;31.83;13.73;;;1.10;99.90;;;;;;5051113;28;20040;-67
2021/11/25 07:04:32;;;;;;;27.30;12.93;;;1.10;99.90;;;;;;5049435;28;20044;-67
2021/11/25 07:06:58;;;;;;;29.52;13.20;;;1.10;99.90;;;;;;5057267;28;20759;-66
2021/11/25 07:09:23;;;;;;;26.65;12.52;;;1.10;99.90;;;;;;5049492;28;20025;-67
2021/11/25 07:11:49;;;;;;;28.88;13.27;;;1.10;99.90;;;;;;5056671;28;20037;-67
2021/11/25 07:14:15;;;;;;;27.27;13.88;;;1.10;99.90;;;;;;5035965;28;20029;-66
2021/11/25 07:16:40;;;;;;;30.42;13.27;;;1.10;99.90;;;;;;5039086;28;20028;-67
2021/11/25 07:19:06;;;;;;;34.35;13.82;;;1.10;99.90;;;;;;5040397;28;20028;-67
2021/11/25 07:21:32;;;;;;;28.60;13.02;;;1.10;99.90;;;;;;5050727;28;20416;-67
2021/11/25 07:23:58;;;;;;;29.50;12.75;;;1.20;99.90;;;;;;5048156;28;20083;-67
2021/11/25 07:26:24;;;;;;;29.58;12.95;;;1.10;99.90;;;;;;5048577;28;20033;-67
2021/11/25 07:28:49;;;;;;;26.95;12.70;;;1.10;99.90;;;;;;5044519;28;20028;-67
2021/11/25 07:31:15;;;;;;;29.67;12.98;;;1.20;99.90;;;;;;5039533;28;20025;-68
2021/11/25 07:33:41;;;;;;;30.48;13.90;;;1.10;99.90;;;;;;5038931;28;20032;-68
2021/11/25 07:36:07;;;;;;;30.25;13.75;;;1.20;99.90;;;;;;5048425;28;20404;-67
2021/11/25 07:38:33;;;;;;;32.63;13.98;;;1.20;99.90;;;;;;5038849;28;20032;-67
2021/11/25 07:40:59;;;;;;;28.95;12.32;;;1.20;99.90;;;;;;5047183;28;20025;-67
2021/11/25 07:43:28;;;;;;;31.92;14.75;;;1.20;99.90;;;;;;5044209;28;20047;-67
2021/11/25 07:45:54;;;;;;;29.20;13.52;;;1.20;99.90;;;;;;5042247;28;20417;-67
2021/11/25 07:48:20;;;;;;;31.17;13.63;;;1.20;99.90;;;;;;5048831;28;20082;-67
2021/11/25 07:50:45;;;;;;;30.45;13.50;;;1.20;99.90;;;;;;5050858;28;20026;-69
2021/11/25 07:53:11;;;;;;;32.88;13.02;;;1.30;99.90;;;;;;5051968;28;20103;-67
2021/11/25 07:55:37;;;;;;;30.17;13.75;;;1.30;99.90;;;;;;5050985;28;20113;-67
2021/11/25 07:58:03;;;;;;;27.77;12.23;;;1.30;99.90;;;;;;5037169;28;20500;-68
2021/11/25 08:00:29;;;;;;;33.47;14.10;;;1.30;99.90;;;;;;5037491;28;20424;-67
2021/11/25 08:02:56;;;;;;;32.92;14.15;;;1.30;99.90;;;;;;5045681;28;20052;-67
2021/11/25 08:05:25;;;;;;;33.95;15.23;;;1.30;99.90;;;;;;5052713;28;20032;-67
2021/11/25 08:07:54;;;;;;;32.80;13.95;;;1.30;99.90;;;;;;5042499;28;20045;-67
2021/11/25 08:10:20;;;;;;;32.58;14.35;;;1.30;99.90;;;;;;5051873;28;20025;-67
2021/11/25 08:12:47;;;;;;;30.15;14.13;;;1.30;99.90;;;;;;5052516;28;20142;-67
2021/11/25 08:15:12;;;;;;;32.30;13.68;;;1.30;99.90;;;;;;5050396;28;20028;-67
2021/11/25 08:17:39;;;;;;;29.13;13.75;;;1.30;99.90;;;;;;5046097;28;20392;-67
2021/11/25 08:20:06;;;;;;;29.35;14.32;;;1.30;99.90;;;;;;5053220;28;20099;-68
2021/11/25 08:22:31;;;;;;;32.53;14.20;;;1.30;99.90;;;;;;5046391;28;20380;-67
2021/11/25 08:24:57;;;;;;;27.50;13.00;;;1.30;99.90;;;;;;5039853;28;20033;-67
2021/11/25 08:27:23;;;;;;;28.83;13.80;;;1.30;99.90;;;;;;5040896;28;20025;-68
2021/11/25 08:29:48;;;;;;;30.60;14.13;;;1.30;99.90;;;;;;5050491;28;20036;-68
2021/11/25 08:32:14;;;;;;;32.83;13.48;;;1.30;99.90;;;;;;5046909;28;20025;-68
2021/11/25 08:34:40;;;;;;;30.98;13.77;;;1.40;99.90;;;;;;5044143;28;20075;-68
2021/11/25 08:37:07;;;;;;;32.65;14.77;;;1.40;99.90;;;;;;5044094;28;20525;-68
2021/11/25 08:39:34;;;;;;;34.28;15.52;;;1.50;99.90;;;;;;5041914;28;20025;-68
2021/11/25 08:42:00;;;;;;;31.77;14.52;;;1.50;99.90;;;;;;5048114;28;20025;-68
2021/11/25 08:44:25;;;;;;;37.92;18.38;;;1.50;99.90;;;;;;5036556;28;20107;-66
2021/11/25 08:46:51;;;;;;;33.38;15.10;;;1.70;99.90;;;;;;5043966;28;20125;-69
2021/11/25 08:49:17;;;;;;;31.10;14.43;;;1.80;99.90;;;;;;5048324;28;20017;-67
2021/11/25 08:51:42;;;;;;;34.95;16.17;;;1.90;99.90;;;;;;5038468;28;20021;-68
2021/11/25 08:54:08;;;;;;;37.88;16.27;;;1.90;99.90;;;;;;5045864;28;20020;-67
2021/11/25 08:56:33;;;;;;;32.70;15.02;;;1.90;99.90;;;;;;5051881;28;20033;-68
2021/11/25 08:58:59;;;;;;;30.33;14.95;;;1.90;99.90;;;;;;5045292;28;20035;-67
2021/11/25 09:01:25;;;;;;;34.67;16.10;;;1.80;99.90;;;;;;5045618;28;20017;-68
2021/11/25 09:03:52;;;;;;;34.85;15.13;;;1.80;99.90;;;;;;5038902;28;20021;-67
2021/11/25 09:06:18;;;;;;;35.22;15.18;;;1.90;99.90;;;;;;5037877;28;20033;-68
2021/11/25 09:08:43;;;;;;;35.00;15.93;;;2.10;99.90;;;;;;5037053;28;20033;-68
2021/11/25 09:11:10;;;;;;;33.03;15.38;;;2.20;99.90;;;;;;5048869;28;20075;-68
2021/11/25 09:13:36;;;;;;;31.83;14.85;;;2.30;99.90;;;;;;5045279;28;20120;-67
2021/11/25 09:16:01;;;;;;;31.23;14.88;;;2.30;99.90;;;;;;5053020;28;20115;-68
2021/11/25 09:18:27;;;;;;;29.33;14.02;;;2.30;99.90;;;;;;5048548;28;20029;-67
2021/11/25 09:20:52;;;;;;;30.35;14.85;;;2.20;99.90;;;;;;5038604;28;20427;-68
2021/11/25 09:23:19;;;;;;;32.28;14.48;;;2.20;99.90;;;;;;5035842;28;20033;-68
2021/11/25 09:25:46;;;;;;;27.33;13.15;;;2.20;99.90;;;;;;5043639;28;20029;-68
2021/11/25 09:28:14;;;;;;;29.23;14.57;;;2.20;99.90;;;;;;5039563;28;20052;-67
2021/11/25 09:30:42;;;;;;;28.45;14.40;;;2.20;99.90;;;;;;5049807;28;20128;-68
2021/11/25 09:33:09;;;;;;;31.73;15.82;;;2.20;99.90;;;;;;5040383;28;20494;-68
2021/11/25 09:35:35;;;;;;;27.30;14.27;;;2.20;99.90;;;;;;5045760;28;20017;-68
2021/11/25 09:38:01;;;;;;;35.60;15.75;;;2.20;99.90;;;;;;5047661;28;20100;-67
2021/11/25 09:40:27;;;;;;;28.95;14.90;;;2.20;99.90;;;;;;5051847;28;20103;-68
2021/11/25 09:43:05;;;;;;;29.17;14.40;;;2.20;99.90;;;;;;5039795;28;20568;-68
2021/11/25 09:45:32;;;;;;;26.05;13.00;;;2.10;99.90;;;;;;5054591;28;20032;-68
2021/11/25 09:48:02;;;;;;;29.30;14.15;;;2.10;99.90;;;;;;5044928;28;20374;-67
2021/11/25 09:50:30;;;;;;;29.13;14.80;;;2.10;99.90;;;;;;5046946;28;20473;-68
2021/11/25 09:52:59;;;;;;;31.15;13.65;;;2.10;99.90;;;;;;5063893;28;20032;-67
2021/11/25 09:55:25;;;;;;;33.70;16.15;;;2.10;99.90;;;;;;5033635;28;20365;-67
2021/11/25 09:57:51;;;;;;;38.92;19.00;;;2.30;99.90;;;;;;5043212;28;20025;-68
2021/11/25 10:00:19;;;;;;;37.45;17.20;;;2.40;99.90;;;;;;5051995;28;20032;-68
2021/11/25 10:02:45;;;;;;;34.85;16.85;;;2.50;99.90;;;;;;5053308;28;20040;-67
2021/11/25 10:05:10;;;;;;;36.08;17.00;;;2.50;99.90;;;;;;5047675;28;20108;-68
2021/11/25 10:07:38;;;;;;;43.33;19.17;;;2.50;99.90;;;;;;5048987;28;20100;-68
2021/11/25 10:10:26;;;;;;;36.55;16.90;;;2.40;99.90;;;;;;5028369;22;20678;-68
2021/11/25 10:12:58;;;;;;;37.50;16.65;;;2.40;99.90;;;;;;5002715;28;20071;-68
2021/11/25 10:15:35;;;;;;;38.35;16.60;;;2.30;99.90;;;;;;5004453;28;20054;-68
2021/11/25 10:18:04;;;;;;;34.92;16.40;;;2.40;99.90;;;;;;5006727;28;20030;-67
2021/11/25 10:20:33;;;;;;;30.48;14.75;;;2.50;99.90;;;;;;4986691;28;20034;-68
2021/11/25 10:23:02;;;;;;;37.42;16.77;;;2.50;99.90;;;;;;4982265;28;20026;-67
2021/11/25 10:25:51;;;;;;;34.40;16.23;;;2.50;99.90;;;;;;5001889;28;20026;-68
2021/11/25 10:28:23;;;;;;;37.47;15.68;;;2.50;99.90;;;;;;4998849;28;20052;-67
2021/11/25 10:30:52;;;;;;;33.03;16.17;;;2.50;99.90;;;;;;5004536;28;20050;-68
2021/11/25 10:33:28;;;;;;;42.33;21.20;;;2.50;99.90;;;;;;5005755;28;20101;-67
2021/11/25 10:38:45;;;;;;;38.03;16.80;;;2.60;99.90;;;;;;5007082;28;20034;-68
2021/11/25 10:41:18;;;;;;;33.72;15.65;;;2.60;99.70;;;;;;5002272;28;20491;-68
2021/11/25 10:43:44;;;;;;;34.83;16.60;;;2.50;99.70;;;;;;4982164;28;20049;-69
2021/11/25 10:46:10;;;;;;;35.08;16.95;;;2.40;99.70;;;;;;4998037;28;20104;-68
2021/11/25 10:48:41;;;;;;;35.53;16.20;;;2.40;99.80;;;;;;5002635;28;20026;-68
2021/11/25 10:51:43;;;;;;;35.67;17.05;;;2.40;99.80;;;;;;5001052;28;20022;-68
2021/11/25 10:54:11;;;;;;;32.10;16.83;;;2.40;99.90;;;;;;4992186;28;20113;-68
2021/11/25 10:56:49;;;;;;;31.98;15.77;;;2.40;99.90;;;;;;4987656;28;20034;-68
2021/11/25 10:59:17;;;;;;;31.67;15.80;;;2.40;99.90;;;;;;5005932;28;20022;-67
2021/11/25 11:01:49;;;;;;;33.75;15.35;;;2.40;99.90;;;;;;4995819;28;20105;-67
2021/11/25 11:04:16;;;;;;;32.95;15.80;;;2.40;99.90;;;;;;5005646;28;20025;-67
2021/11/25 11:06:43;;;;;;;32.90;15.70;;;2.40;99.90;;;;;;4992527;28;20034;-67
2021/11/25 11:09:29;;;;;;;32.85;16.70;;;2.40;99.90;;;;;;4997766;28;20040;-66
2021/11/25 11:12:18;;;;;;;36.90;17.48;;;2.50;99.90;;;;;;4997440;28;20026;-68
2021/11/25 11:14:51;;;;;;;38.35;17.20;;;2.50;99.80;;;;;;5006376;28;20040;-67
2021/11/25 11:17:25;;;;;;;36.83;16.52;;;2.50;99.80;;;;;;5004722;28;20038;-71
2021/11/25 11:20:17;;;;;;;36.50;16.58;;;2.50;99.90;;;;;;5002306;28;20094;-67
2021/11/25 11:22:55;;;;;;;32.50;16.52;;;2.50;99.90;;;;;;4988082;28;20026;-66
2021/11/25 11:25:23;;;;;;;38.17;17.13;;;2.50;99.90;;;;;;4998197;28;20023;-66
2021/11/25 11:27:50;;;;;;;36.78;16.77;;;2.50;99.90;;;;;;5005843;28;20029;-67
2021/11/25 11:30:17;;;;;;;35.17;16.70;;;2.50;99.80;;;;;;5006170;28;20045;-67
2021/11/25 11:32:44;;;;;;;35.88;16.63;;;2.50;99.80;;;;;;5003886;28;20485;-67
2021/11/25 11:35:10;;;;;;;30.55;15.38;;;2.50;99.80;;;;;;5003272;28;20031;-67
2021/11/25 11:37:39;;;;;;;32.20;15.65;;;2.60;99.90;;;;;;4994872;28;20029;-67
2021/11/25 11:40:07;;;;;;;91.65;48.85;;;2.60;99.90;;;;;;4996773;28;20026;-67
2021/11/25 11:42:33;;;;;;;39.03;20.10;;;2.60;99.90;;;;;;5000837;28;20034;-67
2021/11/25 11:45:00;;;;;;;31.80;16.05;;;2.70;99.90;;;;;;5003443;28;20509;-68
2021/11/25 11:47:26;;;;;;;34.97;16.70;;;2.70;99.90;;;;;;5007317;28;20075;-68
2021/11/25 11:50:01;;;;;;;34.72;17.60;;;2.70;99.80;;;;;;4989409;28;20394;-68
2021/11/25 11:52:27;;;;;;;38.00;17.38;;;2.70;99.70;;;;;;5007275;28;20046;-68
2021/11/25 11:54:59;;;;;;;36.05;16.13;;;2.70;99.70;;;;;;4988822;28;20053;-68
2021/11/25 11:57:28;;;;;;;35.22;16.73;;;2.70;99.70;;;;;;5006792;28;20026;-68
2021/11/25 11:59:54;;;;;;;39.97;17.20;;;2.70;99.70;;;;;;5007139;28;20036;-68
2021/11/25 12:02:41;;;;;;;33.25;15.70;;;2.70;99.70;;;;;;5006259;28;20101;-67
2021/11/25 12:05:08;;;;;;;32.22;15.75;;;2.70;99.70;;;;;;5003949;28;20045;-69
2021/11/25 12:07:34;;;;;;;32.80;15.15;;;2.70;99.70;;;;;;4996383;28;20087;-68
2021/11/25 12:10:00;;;;;;;29.13;15.10;;;2.70;99.70;;;;;;5000695;28;20031;-68
2021/11/25 12:12:25;;;;;;;29.27;14.85;;;2.70;99.70;;;;;;4987574;28;20022;-68
2021/11/25 12:14:56;;;;;;;30.48;16.35;;;2.70;99.70;;;;;;4988448;28;20030;-68
2021/11/25 12:17:36;;;;;;;33.00;16.45;;;2.70;99.70;;;;;;5002860;28;20056;-68
2021/11/25 12:20:32;;;;;;;45.25;21.67;;;2.70;99.60;;;;;;4990112;28;20412;-68
2021/11/25 12:22:59;;;;;;;39.15;17.23;;;2.60;99.50;;;;;;4992838;28;20026;-68
2021/11/25 12:25:39;;;;;;;32.10;16.08;;;2.60;99.80;;;;;;5010002;28;20034;-68
2021/11/25 12:28:28;;;;;;;37.33;16.45;;;2.60;99.60;;;;;;5009712;28;20097;-68
2021/11/25 12:31:10;;;;;;;36.90;17.30;;;2.60;99.60;;;;;;4992702;28;20029;-68
2021/11/25 12:33:47;;;;;;;38.40;17.00;;;2.60;99.60;;;;;;5009967;28;20121;-67
2021/11/25 12:36:31;;;;;;;38.30;16.80;;;2.60;99.60;;;;;;5010143;28;20037;-67
2021/11/25 12:38:57;;;;;;;33.05;16.88;;;2.60;99.60;;;;;;5006206;28;20093;-68
2021/11/25 12:41:23;;;;;;;36.13;16.15;;;2.60;99.60;;;;;;4990940;28;20102;-68
2021/11/25 12:43:48;;;;;;;36.50;16.63;;;2.60;99.70;;;;;;4990451;28;20034;-68
2021/11/25 12:46:17;;;;;;;32.53;15.63;;;2.60;99.50;;;;;;5002558;28;20034;-68
2021/11/25 12:48:44;;;;;;;39.15;17.42;;;2.60;99.50;;;;;;5009231;28;20030;-68
2021/11/25 12:51:19;;;;;;;31.45;15.57;;;2.60;99.50;;;;;;4992692;28;20026;-67